sensor_id;sensor_type;location;lat;lon;timestamp;P1;durP1;ratioP1;P2;durP2;ratioP2
41799;SDS011;27468;47.460;19.034;2023-02-15T00:01:09;49.47;;;19.63;;
41799;SDS011;27468;47.460;19.034;2023-02-15T00:03:36;57.20;;;21.60;;
41799;SDS011;27468;47.460;19.034;2023-02-15T00:06:02;57.00;;;20.83;;
41799;SDS011;27468;47.460;19.034;2023-02-15T00:08:29;53.87;;;20.83;;
41799;SDS011;27468;47.460;19.034;2023-02-15T00:11:08;55.77;;;20.57;;
41799;SDS011;27468;47.460;19.034;2023-02-15T00:13:33;58.57;;;20.57;;
41799;SDS011;27468;47.460;19.034;2023-02-15T00:16:01;54.90;;;19.93;;
41799;SDS011;27468;47.460;19.034;2023-02-15T00:18:28;54.90;;;20.30;;
41799;SDS011;27468;47.460;19.034;2023-02-15T00:20:53;53.90;;;20.13;;
41799;SDS011;27468;47.460;19.034;2023-02-15T00:23:19;55.67;;;20.33;;
41799;SDS011;27468;47.460;19.034;2023-02-15T00:25:44;52.60;;;19.70;;
41799;SDS011;27468;47.460;19.034;2023-02-15T00:28:10;49.03;;;19.33;;
41799;SDS011;27468;47.460;19.034;2023-02-15T00:30:35;53.40;;;19.13;;
41799;SDS011;27468;47.460;19.034;2023-02-15T00:33:00;50.33;;;19.07;;
41799;SDS011;27468;47.460;19.034;2023-02-15T00:35:26;58.27;;;19.53;;
41799;SDS011;27468;47.460;19.034;2023-02-15T00:37:51;50.23;;;18.93;;
41799;SDS011;27468;47.460;19.034;2023-02-15T00:40:17;54.00;;;19.27;;
41799;SDS011;27468;47.460;19.034;2023-02-15T00:42:43;52.03;;;20.50;;
41799;SDS011;27468;47.460;19.034;2023-02-15T00:45:08;54.10;;;20.07;;
41799;SDS011;27468;47.460;19.034;2023-02-15T00:47:34;52.10;;;18.97;;
41799;SDS011;27468;47.460;19.034;2023-02-15T00:49:59;59.07;;;19.37;;
41799;SDS011;27468;47.460;19.034;2023-02-15T00:52:25;53.57;;;19.57;;
41799;SDS011;27468;47.460;19.034;2023-02-15T00:54:50;52.93;;;18.83;;
41799;SDS011;27468;47.460;19.034;2023-02-15T00:57:16;54.63;;;20.70;;
41799;SDS011;27468;47.460;19.034;2023-02-15T00:59:41;50.30;;;18.30;;
41799;SDS011;27468;47.460;19.034;2023-02-15T01:02:07;54.90;;;19.03;;
41799;SDS011;27468;47.460;19.034;2023-02-15T01:04:32;54.63;;;19.97;;
41799;SDS011;27468;47.460;19.034;2023-02-15T01:06:57;54.70;;;19.73;;
41799;SDS011;27468;47.460;19.034;2023-02-15T01:09:23;52.37;;;18.80;;
41799;SDS011;27468;47.460;19.034;2023-02-15T01:11:48;56.67;;;19.63;;
41799;SDS011;27468;47.460;19.034;2023-02-15T01:14:14;55.33;;;20.03;;
41799;SDS011;27468;47.460;19.034;2023-02-15T01:16:39;55.00;;;19.83;;
41799;SDS011;27468;47.460;19.034;2023-02-15T01:19:05;52.53;;;18.30;;
41799;SDS011;27468;47.460;19.034;2023-02-15T01:21:31;53.93;;;19.43;;
41799;SDS011;27468;47.460;19.034;2023-02-15T01:23:59;56.27;;;19.63;;
41799;SDS011;27468;47.460;19.034;2023-02-15T01:26:25;57.07;;;19.97;;
41799;SDS011;27468;47.460;19.034;2023-02-15T01:28:51;56.27;;;19.37;;
41799;SDS011;27468;47.460;19.034;2023-02-15T01:31:18;61.53;;;21.17;;
41799;SDS011;27468;47.460;19.034;2023-02-15T01:33:46;55.73;;;19.37;;
41799;SDS011;27468;47.460;19.034;2023-02-15T01:36:12;58.23;;;18.73;;
41799;SDS011;27468;47.460;19.034;2023-02-15T01:38:38;59.07;;;19.20;;
41799;SDS011;27468;47.460;19.034;2023-02-15T01:41:06;61.60;;;20.50;;
41799;SDS011;27468;47.460;19.034;2023-02-15T01:43:57;58.57;;;19.23;;
41799;SDS011;27468;47.460;19.034;2023-02-15T01:46:26;58.53;;;19.63;;
41799;SDS011;27468;47.460;19.034;2023-02-15T01:48:56;60.13;;;19.57;;
41799;SDS011;27468;47.460;19.034;2023-02-15T01:51:38;57.50;;;18.67;;
41799;SDS011;27468;47.460;19.034;2023-02-15T01:54:19;59.50;;;18.73;;
41799;SDS011;27468;47.460;19.034;2023-02-15T01:56:52;58.50;;;18.73;;
41799;SDS011;27468;47.460;19.034;2023-02-15T01:59:22;57.73;;;18.87;;
41799;SDS011;27468;47.460;19.034;2023-02-15T02:01:49;58.37;;;17.97;;
41799;SDS011;27468;47.460;19.034;2023-02-15T02:04:19;56.70;;;18.87;;
41799;SDS011;27468;47.460;19.034;2023-02-15T02:06:46;57.53;;;18.33;;
41799;SDS011;27468;47.460;19.034;2023-02-15T02:09:15;65.50;;;20.07;;
41799;SDS011;27468;47.460;19.034;2023-02-15T02:11:40;60.17;;;19.17;;
41799;SDS011;27468;47.460;19.034;2023-02-15T02:14:09;56.47;;;19.03;;
41799;SDS011;27468;47.460;19.034;2023-02-15T02:33:11;55.53;;;20.03;;
41799;SDS011;27468;47.460;19.034;2023-02-15T02:36:05;50.58;;;17.63;;
41799;SDS011;27468;47.460;19.034;2023-02-15T02:38:38;56.20;;;18.70;;
41799;SDS011;27468;47.460;19.034;2023-02-15T02:46:52;56.23;;;18.43;;
41799;SDS011;27468;47.460;19.034;2023-02-15T02:52:00;52.43;;;17.57;;
41799;SDS011;27468;47.460;19.034;2023-02-15T02:54:28;56.77;;;17.97;;
41799;SDS011;27468;47.460;19.034;2023-02-15T02:56:54;59.23;;;18.50;;
41799;SDS011;27468;47.460;19.034;2023-02-15T02:59:25;60.53;;;18.60;;
41799;SDS011;27468;47.460;19.034;2023-02-15T03:04:28;49.57;;;16.60;;
41799;SDS011;27468;47.460;19.034;2023-02-15T03:07:03;51.55;;;16.75;;
41799;SDS011;27468;47.460;19.034;2023-02-15T03:09:36;50.97;;;17.20;;
41799;SDS011;27468;47.460;19.034;2023-02-15T03:12:11;52.43;;;17.80;;
41799;SDS011;27468;47.460;19.034;2023-02-15T03:17:06;51.87;;;17.07;;
41799;SDS011;27468;47.460;19.034;2023-02-15T03:19:34;48.97;;;17.13;;
41799;SDS011;27468;47.460;19.034;2023-02-15T03:22:06;51.47;;;16.77;;
41799;SDS011;27468;47.460;19.034;2023-02-15T03:24:40;47.10;;;16.23;;
41799;SDS011;27468;47.460;19.034;2023-02-15T03:27:13;58.13;;;19.20;;
41799;SDS011;27468;47.460;19.034;2023-02-15T03:29:48;53.00;;;16.57;;
41799;SDS011;27468;47.460;19.034;2023-02-15T03:32:18;50.53;;;16.90;;
41799;SDS011;27468;47.460;19.034;2023-02-15T03:34:44;51.23;;;16.93;;
41799;SDS011;27468;47.460;19.034;2023-02-15T03:37:13;48.53;;;17.33;;
41799;SDS011;27468;47.460;19.034;2023-02-15T03:39:53;52.43;;;16.70;;
41799;SDS011;27468;47.460;19.034;2023-02-15T03:42:42;53.40;;;16.17;;
41799;SDS011;27468;47.460;19.034;2023-02-15T03:45:11;43.93;;;15.20;;
41799;SDS011;27468;47.460;19.034;2023-02-15T03:47:43;49.25;;;15.75;;
41799;SDS011;27468;47.460;19.034;2023-02-15T03:50:18;53.37;;;17.23;;
41799;SDS011;27468;47.460;19.034;2023-02-15T03:53:07;49.40;;;15.47;;
41799;SDS011;27468;47.460;19.034;2023-02-15T03:55:36;49.17;;;16.80;;
41799;SDS011;27468;47.460;19.034;2023-02-15T03:58:02;49.80;;;16.47;;
41799;SDS011;27468;47.460;19.034;2023-02-15T04:04:19;51.90;;;16.37;;
41799;SDS011;27468;47.460;19.034;2023-02-15T04:06:47;53.90;;;16.63;;
41799;SDS011;27468;47.460;19.034;2023-02-15T04:09:13;49.93;;;16.80;;
41799;SDS011;27468;47.460;19.034;2023-02-15T04:11:57;54.20;;;16.63;;
41799;SDS011;27468;47.460;19.034;2023-02-15T04:14:23;56.53;;;18.10;;
41799;SDS011;27468;47.460;19.034;2023-02-15T04:17:07;56.47;;;17.27;;
41799;SDS011;27468;47.460;19.034;2023-02-15T04:19:33;51.30;;;16.47;;
41799;SDS011;27468;47.460;19.034;2023-02-15T04:22:17;47.30;;;17.90;;
41799;SDS011;27468;47.460;19.034;2023-02-15T04:25:01;53.17;;;16.30;;
41799;SDS011;27468;47.460;19.034;2023-02-15T04:27:39;52.37;;;17.67;;
41799;SDS011;27468;47.460;19.034;2023-02-15T04:30:06;59.37;;;16.83;;
41799;SDS011;27468;47.460;19.034;2023-02-15T04:32:33;54.37;;;16.33;;
41799;SDS011;27468;47.460;19.034;2023-02-15T04:34:59;52.83;;;16.93;;
41799;SDS011;27468;47.460;19.034;2023-02-15T04:37:24;54.03;;;17.63;;
41799;SDS011;27468;47.460;19.034;2023-02-15T04:39:49;52.90;;;17.20;;
41799;SDS011;27468;47.460;19.034;2023-02-15T04:42:15;50.23;;;16.97;;
41799;SDS011;27468;47.460;19.034;2023-02-15T04:44:40;54.97;;;18.40;;
41799;SDS011;27468;47.460;19.034;2023-02-15T04:47:06;53.20;;;17.50;;
41799;SDS011;27468;47.460;19.034;2023-02-15T04:49:31;56.37;;;17.73;;
41799;SDS011;27468;47.460;19.034;2023-02-15T04:51:57;52.07;;;18.03;;
41799;SDS011;27468;47.460;19.034;2023-02-15T04:54:22;51.07;;;17.33;;
41799;SDS011;27468;47.460;19.034;2023-02-15T04:56:48;54.20;;;17.60;;
41799;SDS011;27468;47.460;19.034;2023-02-15T04:59:13;58.90;;;18.37;;
41799;SDS011;27468;47.460;19.034;2023-02-15T05:01:39;47.37;;;16.30;;
41799;SDS011;27468;47.460;19.034;2023-02-15T05:04:04;46.70;;;16.47;;
41799;SDS011;27468;47.460;19.034;2023-02-15T05:06:30;49.10;;;16.77;;
41799;SDS011;27468;47.460;19.034;2023-02-15T05:08:55;49.40;;;15.77;;
41799;SDS011;27468;47.460;19.034;2023-02-15T05:11:23;47.47;;;16.40;;
41799;SDS011;27468;47.460;19.034;2023-02-15T05:13:49;50.73;;;16.13;;
41799;SDS011;27468;47.460;19.034;2023-02-15T05:16:14;54.67;;;17.67;;
41799;SDS011;27468;47.460;19.034;2023-02-15T05:18:40;57.27;;;17.63;;
41799;SDS011;27468;47.460;19.034;2023-02-15T05:21:05;52.20;;;16.43;;
41799;SDS011;27468;47.460;19.034;2023-02-15T05:23:30;53.73;;;16.53;;
41799;SDS011;27468;47.460;19.034;2023-02-15T05:25:56;53.80;;;16.27;;
41799;SDS011;27468;47.460;19.034;2023-02-15T05:28:40;52.60;;;15.57;;
41799;SDS011;27468;47.460;19.034;2023-02-15T05:31:06;51.97;;;17.33;;
41799;SDS011;27468;47.460;19.034;2023-02-15T05:33:35;51.63;;;16.87;;
41799;SDS011;27468;47.460;19.034;2023-02-15T05:36:01;54.03;;;17.47;;
41799;SDS011;27468;47.460;19.034;2023-02-15T05:38:27;50.57;;;16.80;;
41799;SDS011;27468;47.460;19.034;2023-02-15T05:40:53;46.53;;;16.30;;
41799;SDS011;27468;47.460;19.034;2023-02-15T05:43:18;48.10;;;15.93;;
41799;SDS011;27468;47.460;19.034;2023-02-15T05:45:45;54.33;;;16.47;;
41799;SDS011;27468;47.460;19.034;2023-02-15T05:48:15;47.80;;;17.17;;
41799;SDS011;27468;47.460;19.034;2023-02-15T05:50:41;53.30;;;16.73;;
41799;SDS011;27468;47.460;19.034;2023-02-15T05:53:06;54.53;;;17.97;;
41799;SDS011;27468;47.460;19.034;2023-02-15T05:55:32;53.63;;;17.97;;
41799;SDS011;27468;47.460;19.034;2023-02-15T05:57:57;52.27;;;18.73;;
41799;SDS011;27468;47.460;19.034;2023-02-15T06:00:22;52.90;;;16.93;;
41799;SDS011;27468;47.460;19.034;2023-02-15T06:02:48;53.93;;;16.53;;
41799;SDS011;27468;47.460;19.034;2023-02-15T06:05:14;48.83;;;16.27;;
41799;SDS011;27468;47.460;19.034;2023-02-15T06:07:39;47.27;;;15.83;;
41799;SDS011;27468;47.460;19.034;2023-02-15T06:10:08;51.50;;;16.83;;
41799;SDS011;27468;47.460;19.034;2023-02-15T06:12:33;53.20;;;16.50;;
41799;SDS011;27468;47.460;19.034;2023-02-15T06:14:59;49.03;;;16.10;;
41799;SDS011;27468;47.460;19.034;2023-02-15T06:17:24;51.07;;;15.67;;
41799;SDS011;27468;47.460;19.034;2023-02-15T06:19:50;50.10;;;16.03;;
41799;SDS011;27468;47.460;19.034;2023-02-15T06:22:15;52.90;;;15.90;;
41799;SDS011;27468;47.460;19.034;2023-02-15T06:24:41;51.23;;;16.63;;
41799;SDS011;27468;47.460;19.034;2023-02-15T06:27:07;53.13;;;16.20;;
41799;SDS011;27468;47.460;19.034;2023-02-15T06:29:34;46.23;;;15.43;;
41799;SDS011;27468;47.460;19.034;2023-02-15T06:32:00;48.83;;;16.03;;
41799;SDS011;27468;47.460;19.034;2023-02-15T06:34:25;48.03;;;16.53;;
41799;SDS011;27468;47.460;19.034;2023-02-15T06:36:50;44.90;;;15.50;;
41799;SDS011;27468;47.460;19.034;2023-02-15T06:39:16;46.70;;;16.30;;
41799;SDS011;27468;47.460;19.034;2023-02-15T06:41:41;50.70;;;17.30;;
41799;SDS011;27468;47.460;19.034;2023-02-15T06:44:07;46.07;;;16.60;;
41799;SDS011;27468;47.460;19.034;2023-02-15T06:46:32;54.33;;;18.70;;
41799;SDS011;27468;47.460;19.034;2023-02-15T06:48:57;49.03;;;16.13;;
41799;SDS011;27468;47.460;19.034;2023-02-15T06:51:23;48.20;;;19.00;;
41799;SDS011;27468;47.460;19.034;2023-02-15T06:53:48;50.03;;;16.23;;
41799;SDS011;27468;47.460;19.034;2023-02-15T06:56:14;50.47;;;17.50;;
41799;SDS011;27468;47.460;19.034;2023-02-15T06:58:39;54.43;;;17.77;;
41799;SDS011;27468;47.460;19.034;2023-02-15T07:01:05;50.33;;;17.87;;
41799;SDS011;27468;47.460;19.034;2023-02-15T07:03:31;50.57;;;18.40;;
41799;SDS011;27468;47.460;19.034;2023-02-15T07:05:58;47.63;;;18.40;;
41799;SDS011;27468;47.460;19.034;2023-02-15T07:08:25;52.67;;;17.73;;
41799;SDS011;27468;47.460;19.034;2023-02-15T07:10:52;50.73;;;18.67;;
41799;SDS011;27468;47.460;19.034;2023-02-15T07:13:19;50.77;;;18.43;;
41799;SDS011;27468;47.460;19.034;2023-02-15T07:15:45;50.77;;;18.90;;
41799;SDS011;27468;47.460;19.034;2023-02-15T07:18:11;52.47;;;19.03;;
41799;SDS011;27468;47.460;19.034;2023-02-15T07:20:37;53.63;;;20.57;;
41799;SDS011;27468;47.460;19.034;2023-02-15T07:23:04;53.20;;;20.03;;
41799;SDS011;27468;47.460;19.034;2023-02-15T07:25:29;51.00;;;19.37;;
41799;SDS011;27468;47.460;19.034;2023-02-15T07:27:56;51.37;;;19.47;;
41799;SDS011;27468;47.460;19.034;2023-02-15T07:30:26;52.10;;;18.60;;
41799;SDS011;27468;47.460;19.034;2023-02-15T07:32:58;54.27;;;20.23;;
41799;SDS011;27468;47.460;19.034;2023-02-15T07:36:03;49.00;;;19.23;;
41799;SDS011;27468;47.460;19.034;2023-02-15T07:38:30;52.90;;;20.57;;
41799;SDS011;27468;47.460;19.034;2023-02-15T07:41:04;48.50;;;18.77;;
41799;SDS011;27468;47.460;19.034;2023-02-15T07:43:32;53.53;;;20.13;;
41799;SDS011;27468;47.460;19.034;2023-02-15T07:45:59;46.90;;;18.03;;
41799;SDS011;27468;47.460;19.034;2023-02-15T07:48:25;43.60;;;18.40;;
41799;SDS011;27468;47.460;19.034;2023-02-15T07:50:51;48.27;;;18.80;;
41799;SDS011;27468;47.460;19.034;2023-02-15T07:53:16;49.83;;;19.47;;
41799;SDS011;27468;47.460;19.034;2023-02-15T07:55:42;49.50;;;20.63;;
41799;SDS011;27468;47.460;19.034;2023-02-15T07:58:07;45.27;;;18.80;;
41799;SDS011;27468;47.460;19.034;2023-02-15T08:00:32;47.17;;;19.27;;
41799;SDS011;27468;47.460;19.034;2023-02-15T08:03:18;44.33;;;18.43;;
41799;SDS011;27468;47.460;19.034;2023-02-15T08:05:44;44.73;;;19.13;;
41799;SDS011;27468;47.460;19.034;2023-02-15T08:08:10;44.37;;;18.87;;
41799;SDS011;27468;47.460;19.034;2023-02-15T08:10:59;46.90;;;19.90;;
41799;SDS011;27468;47.460;19.034;2023-02-15T08:13:48;49.95;;;21.38;;
41799;SDS011;27468;47.460;19.034;2023-02-15T08:16:24;50.63;;;19.63;;
41799;SDS011;27468;47.460;19.034;2023-02-15T08:18:52;48.33;;;21.03;;
41799;SDS011;27468;47.460;19.034;2023-02-15T08:21:19;46.57;;;19.20;;
41799;SDS011;27468;47.460;19.034;2023-02-15T08:23:45;49.60;;;21.87;;
41799;SDS011;27468;47.460;19.034;2023-02-15T08:26:11;48.40;;;21.70;;
41799;SDS011;27468;47.460;19.034;2023-02-15T08:28:36;45.93;;;20.43;;
41799;SDS011;27468;47.460;19.034;2023-02-15T08:31:08;47.23;;;20.53;;
41799;SDS011;27468;47.460;19.034;2023-02-15T08:33:36;49.03;;;20.20;;
41799;SDS011;27468;47.460;19.034;2023-02-15T08:36:07;45.07;;;19.47;;
41799;SDS011;27468;47.460;19.034;2023-02-15T08:38:34;46.17;;;20.57;;
41799;SDS011;27468;47.460;19.034;2023-02-15T08:41:09;45.40;;;20.67;;
41799;SDS011;27468;47.460;19.034;2023-02-15T08:43:44;45.17;;;20.57;;
41799;SDS011;27468;47.460;19.034;2023-02-15T08:46:12;46.17;;;21.57;;
41799;SDS011;27468;47.460;19.034;2023-02-15T08:48:39;52.77;;;22.33;;
41799;SDS011;27468;47.460;19.034;2023-02-15T08:51:05;44.45;;;19.73;;
41799;SDS011;27468;47.460;19.034;2023-02-15T08:53:36;42.77;;;20.40;;
41799;SDS011;27468;47.460;19.034;2023-02-15T08:56:02;44.43;;;20.53;;
41799;SDS011;27468;47.460;19.034;2023-02-15T08:58:28;49.00;;;22.33;;
41799;SDS011;27468;47.460;19.034;2023-02-15T09:00:55;46.40;;;22.27;;
41799;SDS011;27468;47.460;19.034;2023-02-15T09:03:21;47.73;;;21.63;;
41799;SDS011;27468;47.460;19.034;2023-02-15T09:05:46;49.70;;;23.40;;
41799;SDS011;27468;47.460;19.034;2023-02-15T09:08:11;48.10;;;21.95;;
41799;SDS011;27468;47.460;19.034;2023-02-15T09:10:37;46.58;;;22.33;;
41799;SDS011;27468;47.460;19.034;2023-02-15T09:13:02;47.03;;;21.02;;
41799;SDS011;27468;47.460;19.034;2023-02-15T09:15:28;47.83;;;22.33;;
41799;SDS011;27468;47.460;19.034;2023-02-15T09:17:54;48.05;;;21.83;;
41799;SDS011;27468;47.460;19.034;2023-02-15T09:20:20;50.28;;;23.60;;
41799;SDS011;27468;47.460;19.034;2023-02-15T09:22:45;46.22;;;22.67;;
41799;SDS011;27468;47.460;19.034;2023-02-15T09:25:11;50.05;;;22.75;;
41799;SDS011;27468;47.460;19.034;2023-02-15T09:27:38;46.47;;;23.17;;
41799;SDS011;27468;47.460;19.034;2023-02-15T09:30:05;49.80;;;23.08;;
41799;SDS011;27468;47.460;19.034;2023-02-15T09:32:45;50.80;;;22.63;;
41799;SDS011;27468;47.460;19.034;2023-02-15T09:35:12;50.78;;;24.75;;
41799;SDS011;27468;47.460;19.034;2023-02-15T09:37:37;47.50;;;24.17;;
41799;SDS011;27468;47.460;19.034;2023-02-15T09:40:03;47.33;;;24.00;;
41799;SDS011;27468;47.460;19.034;2023-02-15T09:42:34;53.75;;;25.17;;
41799;SDS011;27468;47.460;19.034;2023-02-15T09:45:21;53.17;;;25.38;;
41799;SDS011;27468;47.460;19.034;2023-02-15T09:48:04;50.15;;;24.77;;
41799;SDS011;27468;47.460;19.034;2023-02-15T09:50:38;52.83;;;24.20;;
41799;SDS011;27468;47.460;19.034;2023-02-15T09:56:04;49.22;;;24.42;;
41799;SDS011;27468;47.460;19.034;2023-02-15T10:07:10;44.92;;;23.20;;
41799;SDS011;27468;47.460;19.034;2023-02-15T10:26:19;44.05;;;22.10;;
41799;SDS011;27468;47.460;19.034;2023-02-15T10:34:27;36.55;;;19.58;;
41799;SDS011;27468;47.460;19.034;2023-02-15T10:37:08;41.55;;;21.60;;
41799;SDS011;27468;47.460;19.034;2023-02-15T10:40:05;42.03;;;22.48;;
41799;SDS011;27468;47.460;19.034;2023-02-15T10:50:47;46.38;;;24.05;;
41799;SDS011;27468;47.460;19.034;2023-02-15T10:53:24;48.88;;;24.38;;
41799;SDS011;27468;47.460;19.034;2023-02-15T10:56:03;47.33;;;24.55;;
41799;SDS011;27468;47.460;19.034;2023-02-15T11:04:29;42.58;;;22.50;;
41799;SDS011;27468;47.460;19.034;2023-02-15T11:07:04;46.42;;;22.63;;
41799;SDS011;27468;47.460;19.034;2023-02-15T11:09:40;44.75;;;22.35;;
41799;SDS011;27468;47.460;19.034;2023-02-15T11:12:10;42.05;;;21.60;;
41799;SDS011;27468;47.460;19.034;2023-02-15T11:14:43;48.17;;;24.02;;
41799;SDS011;27468;47.460;19.034;2023-02-15T11:17:19;48.42;;;24.08;;
41799;SDS011;27468;47.460;19.034;2023-02-15T11:22:25;47.72;;;23.13;;
41799;SDS011;27468;47.460;19.034;2023-02-15T11:24:51;46.50;;;23.40;;
41799;SDS011;27468;47.460;19.034;2023-02-15T11:27:20;43.78;;;21.98;;
41799;SDS011;27468;47.460;19.034;2023-02-15T11:30:04;43.97;;;22.52;;
41799;SDS011;27468;47.460;19.034;2023-02-15T11:32:55;43.50;;;21.80;;
41799;SDS011;27468;47.460;19.034;2023-02-15T11:35:36;41.78;;;22.15;;
41799;SDS011;27468;47.460;19.034;2023-02-15T11:38:32;39.25;;;21.70;;
41799;SDS011;27468;47.460;19.034;2023-02-15T11:41:03;39.35;;;20.50;;
41799;SDS011;27468;47.460;19.034;2023-02-15T11:46:17;39.40;;;20.58;;
41799;SDS011;27468;47.460;19.034;2023-02-15T11:48:44;41.38;;;20.33;;
41799;SDS011;27468;47.460;19.034;2023-02-15T11:51:20;43.00;;;20.58;;
41799;SDS011;27468;47.460;19.034;2023-02-15T11:53:48;39.67;;;21.20;;
41799;SDS011;27468;47.460;19.034;2023-02-15T11:56:16;41.80;;;21.02;;
41799;SDS011;27468;47.460;19.034;2023-02-15T11:59:00;37.55;;;19.30;;
41799;SDS011;27468;47.460;19.034;2023-02-15T12:01:33;38.45;;;19.80;;
41799;SDS011;27468;47.460;19.034;2023-02-15T12:06:54;40.38;;;20.95;;
41799;SDS011;27468;47.460;19.034;2023-02-15T12:09:35;38.28;;;20.33;;
41799;SDS011;27468;47.460;19.034;2023-02-15T12:12:22;38.42;;;21.05;;
41799;SDS011;27468;47.460;19.034;2023-02-15T12:14:52;35.85;;;18.98;;
41799;SDS011;27468;47.460;19.034;2023-02-15T12:17:29;38.15;;;20.25;;
41799;SDS011;27468;47.460;19.034;2023-02-15T12:20:02;36.42;;;19.10;;
41799;SDS011;27468;47.460;19.034;2023-02-15T12:22:34;37.85;;;19.70;;
41799;SDS011;27468;47.460;19.034;2023-02-15T12:25:04;38.15;;;20.38;;
41799;SDS011;27468;47.460;19.034;2023-02-15T12:27:46;39.05;;;20.20;;
41799;SDS011;27468;47.460;19.034;2023-02-15T12:32:49;41.65;;;20.17;;
41799;SDS011;27468;47.460;19.034;2023-02-15T12:35:27;37.25;;;20.00;;
41799;SDS011;27468;47.460;19.034;2023-02-15T12:37:54;38.00;;;20.25;;
41799;SDS011;27468;47.460;19.034;2023-02-15T12:40:31;38.50;;;20.10;;
41799;SDS011;27468;47.460;19.034;2023-02-15T12:42:58;40.33;;;20.75;;
41799;SDS011;27468;47.460;19.034;2023-02-15T12:45:28;30.45;;;17.17;;
41799;SDS011;27468;47.460;19.034;2023-02-15T12:48:07;34.28;;;17.38;;
41799;SDS011;27468;47.460;19.034;2023-02-15T12:50:33;34.97;;;18.10;;
41799;SDS011;27468;47.460;19.034;2023-02-15T12:53:59;30.80;;;15.73;;
41799;SDS011;27468;47.460;19.034;2023-02-15T12:56:05;31.05;;;16.33;;
41799;SDS011;27468;47.460;19.034;2023-02-15T12:58:39;36.65;;;18.77;;
41799;SDS011;27468;47.460;19.034;2023-02-15T13:01:10;32.00;;;16.25;;
41799;SDS011;27468;47.460;19.034;2023-02-15T13:06:27;38.95;;;17.98;;
41799;SDS011;27468;47.460;19.034;2023-02-15T13:08:54;32.55;;;16.52;;
41799;SDS011;27468;47.460;19.034;2023-02-15T13:11:25;32.63;;;16.27;;
41799;SDS011;27468;47.460;19.034;2023-02-15T13:14:07;29.20;;;14.77;;
41799;SDS011;27468;47.460;19.034;2023-02-15T13:16:44;29.50;;;15.85;;
41799;SDS011;27468;47.460;19.034;2023-02-15T13:19:16;31.98;;;17.38;;
41799;SDS011;27468;47.460;19.034;2023-02-15T13:21:52;30.00;;;16.33;;
41799;SDS011;27468;47.460;19.034;2023-02-15T13:27:05;31.80;;;15.95;;
41799;SDS011;27468;47.460;19.034;2023-02-15T13:29:38;30.67;;;16.80;;
41799;SDS011;27468;47.460;19.034;2023-02-15T13:32:11;31.35;;;16.27;;
41799;SDS011;27468;47.460;19.034;2023-02-15T13:34:46;27.90;;;15.45;;
41799;SDS011;27468;47.460;19.034;2023-02-15T13:42:54;30.33;;;17.15;;
41799;SDS011;27468;47.460;19.034;2023-02-15T13:45:28;30.20;;;15.73;;
41799;SDS011;27468;47.460;19.034;2023-02-15T13:59:24;30.52;;;16.02;;
41799;SDS011;27468;47.460;19.034;2023-02-15T14:18:51;32.65;;;17.15;;
41799;SDS011;27468;47.460;19.034;2023-02-15T14:21:31;34.92;;;16.55;;
41799;SDS011;27468;47.460;19.034;2023-02-15T14:32:35;34.97;;;18.40;;
41799;SDS011;27468;47.460;19.034;2023-02-15T14:35:17;35.70;;;18.80;;
41799;SDS011;27468;47.460;19.034;2023-02-15T14:49:25;34.42;;;17.75;;
41799;SDS011;27468;47.460;19.034;2023-02-15T14:51:56;35.88;;;17.58;;
41799;SDS011;27468;47.460;19.034;2023-02-15T15:02:29;32.95;;;17.20;;
41799;SDS011;27468;47.460;19.034;2023-02-15T15:05:09;33.58;;;16.75;;
41799;SDS011;27468;47.460;19.034;2023-02-15T15:07:53;34.72;;;17.50;;
41799;SDS011;27468;47.460;19.034;2023-02-15T15:12:50;34.72;;;17.48;;
41799;SDS011;27468;47.460;19.034;2023-02-15T15:20:56;35.13;;;17.55;;
41799;SDS011;27468;47.460;19.034;2023-02-15T15:25:48;34.55;;;18.23;;
41799;SDS011;27468;47.460;19.034;2023-02-15T15:29:17;33.10;;;16.77;;
41799;SDS011;27468;47.460;19.034;2023-02-15T15:31:18;35.35;;;16.30;;
41799;SDS011;27468;47.460;19.034;2023-02-15T15:49:57;39.67;;;18.33;;
41799;SDS011;27468;47.460;19.034;2023-02-15T15:52:23;36.00;;;18.20;;
41799;SDS011;27468;47.460;19.034;2023-02-15T15:55:36;37.65;;;17.35;;
41799;SDS011;27468;47.460;19.034;2023-02-15T15:57:45;38.35;;;18.80;;
41799;SDS011;27468;47.460;19.034;2023-02-15T16:02:52;36.95;;;17.77;;
41799;SDS011;27468;47.460;19.034;2023-02-15T16:05:18;36.88;;;18.23;;
41799;SDS011;27468;47.460;19.034;2023-02-15T16:07:44;36.20;;;17.27;;
41799;SDS011;27468;47.460;19.034;2023-02-15T16:10:21;38.25;;;18.15;;
41799;SDS011;27468;47.460;19.034;2023-02-15T16:12:51;36.58;;;18.77;;
41799;SDS011;27468;47.460;19.034;2023-02-15T16:15:24;43.38;;;18.75;;
41799;SDS011;27468;47.460;19.034;2023-02-15T16:17:56;38.92;;;18.83;;
41799;SDS011;27468;47.460;19.034;2023-02-15T16:22:53;39.83;;;18.70;;
41799;SDS011;27468;47.460;19.034;2023-02-15T16:28:37;43.10;;;20.13;;
41799;SDS011;27468;47.460;19.034;2023-02-15T16:31:10;41.13;;;19.90;;
41799;SDS011;27468;47.460;19.034;2023-02-15T16:33:38;41.53;;;19.65;;
41799;SDS011;27468;47.460;19.034;2023-02-15T16:36:05;43.95;;;19.67;;
41799;SDS011;27468;47.460;19.034;2023-02-15T16:41:12;42.70;;;19.10;;
41799;SDS011;27468;47.460;19.034;2023-02-15T16:43:40;43.08;;;21.02;;
41799;SDS011;27468;47.460;19.034;2023-02-15T16:46:14;42.90;;;20.80;;
41799;SDS011;27468;47.460;19.034;2023-02-15T16:48:45;49.45;;;20.67;;
41799;SDS011;27468;47.460;19.034;2023-02-15T16:51:23;49.58;;;22.13;;
41799;SDS011;27468;47.460;19.034;2023-02-15T16:53:51;48.67;;;22.30;;
41799;SDS011;27468;47.460;19.034;2023-02-15T16:56:25;46.95;;;23.13;;
41799;SDS011;27468;47.460;19.034;2023-02-15T16:58:53;48.70;;;23.50;;
41799;SDS011;27468;47.460;19.034;2023-02-15T17:01:21;54.17;;;24.20;;
41799;SDS011;27468;47.460;19.034;2023-02-15T17:03:50;51.00;;;24.15;;
41799;SDS011;27468;47.460;19.034;2023-02-15T17:06:34;57.22;;;25.40;;
41799;SDS011;27468;47.460;19.034;2023-02-15T17:09:06;54.70;;;25.40;;
41799;SDS011;27468;47.460;19.034;2023-02-15T17:11:43;57.30;;;25.75;;
41799;SDS011;27468;47.460;19.034;2023-02-15T17:14:10;56.25;;;25.17;;
41799;SDS011;27468;47.460;19.034;2023-02-15T17:19:27;48.90;;;23.13;;
41799;SDS011;27468;47.460;19.034;2023-02-15T17:22:03;54.28;;;22.77;;
41799;SDS011;27468;47.460;19.034;2023-02-15T17:27:12;53.10;;;23.80;;
41799;SDS011;27468;47.460;19.034;2023-02-15T17:29:56;55.43;;;24.43;;
41799;SDS011;27468;47.460;19.034;2023-02-15T17:32:26;52.90;;;23.02;;
41799;SDS011;27468;47.460;19.034;2023-02-15T17:34:59;57.97;;;25.77;;
41799;SDS011;27468;47.460;19.034;2023-02-15T17:40:07;57.65;;;24.83;;
41799;SDS011;27468;47.460;19.034;2023-02-15T17:42:43;53.33;;;24.50;;
41799;SDS011;27468;47.460;19.034;2023-02-15T17:45:09;59.67;;;25.52;;
41799;SDS011;27468;47.460;19.034;2023-02-15T17:47:34;60.80;;;24.92;;
41799;SDS011;27468;47.460;19.034;2023-02-15T17:50:01;60.60;;;26.50;;
41799;SDS011;27468;47.460;19.034;2023-02-15T17:52:28;63.05;;;25.38;;